createdAt,value
2018-09-27T00:02:18.717Z,97193.94
2018-09-27T00:04:48.000Z,97191.14
2018-09-27T00:07:17.110Z,97190.80
2018-09-27T00:09:46.393Z,97187.73
2018-09-27T00:12:15.670Z,97190.00
2018-09-27T00:14:44.773Z,97185.36
2018-09-27T00:17:13.995Z,97185.24
2018-09-27T00:19:43.082Z,97178.22
2018-09-27T00:22:12.381Z,97181.79
2018-09-27T00:24:41.709Z,97176.03
2018-09-27T00:27:10.857Z,97176.83
2018-09-27T00:29:39.977Z,97185.36
2018-09-27T00:32:09.148Z,97185.89
2018-09-27T00:34:38.468Z,97192.05
2018-09-27T00:37:07.549Z,97182.96
2018-09-27T00:39:36.625Z,97181.66
2018-09-27T00:42:05.689Z,97177.30
2018-09-27T00:44:34.844Z,97174.98
2018-09-27T00:47:04.034Z,97175.95
2018-09-27T00:49:33.108Z,97174.33
2018-09-27T00:52:02.287Z,97169.36
2018-09-27T00:54:31.355Z,97168.67
2018-09-27T00:57:00.662Z,97172.27
2018-09-27T00:59:29.783Z,97170.92
2018-09-27T01:01:58.969Z,97167.74
2018-09-27T01:04:28.117Z,97175.91
2018-09-27T01:06:57.248Z,97163.31
2018-09-27T01:09:26.406Z,97166.08
2018-09-27T01:11:55.505Z,97157.39
2018-09-27T01:14:24.644Z,97158.67
2018-09-27T01:16:53.716Z,97157.91
2018-09-27T01:19:22.798Z,97156.61
2018-09-27T01:21:51.920Z,97152.48
2018-09-27T01:24:21.012Z,97150.77
2018-09-27T01:26:50.084Z,97150.81
2018-09-27T01:29:19.168Z,97157.11
2018-09-27T01:31:48.263Z,97157.50
2018-09-27T01:34:17.456Z,97164.31
2018-09-27T01:36:46.567Z,97163.05
2018-09-27T01:39:15.641Z,97170.06
2018-09-27T01:41:44.834Z,97166.14
2018-09-27T01:44:14.059Z,97167.34
2018-09-27T01:46:43.130Z,97167.19
2018-09-27T01:49:12.232Z,97165.33
2018-09-27T01:51:41.324Z,97157.58
2018-09-27T01:54:10.468Z,97162.01
2018-09-27T01:56:39.612Z,97164.28
2018-09-27T01:59:08.727Z,97155.16
2018-09-27T02:01:37.804Z,97161.56
2018-09-27T02:04:07.020Z,97150.37
2018-09-27T02:06:36.091Z,97161.61
2018-09-27T02:09:07.569Z,97163.02
2018-09-27T02:11:36.920Z,97163.02
2018-09-27T02:14:06.350Z,97162.27
2018-09-27T02:16:35.609Z,97156.47
2018-09-27T02:19:04.720Z,97159.70
2018-09-27T02:21:33.812Z,97158.00
2018-09-27T02:24:02.979Z,97160.60
2018-09-27T02:26:32.987Z,97161.91
2018-09-27T02:29:02.712Z,97156.34
2018-09-27T02:31:31.984Z,97152.20
2018-09-27T02:34:01.196Z,97156.54
2018-09-27T02:36:30.379Z,97148.68
2018-09-27T02:38:59.513Z,97143.77
2018-09-27T02:41:28.589Z,97154.56
2018-09-27T02:43:57.745Z,97154.81
2018-09-27T02:46:26.805Z,97143.10
2018-09-27T02:48:55.953Z,97142.10
2018-09-27T02:51:25.025Z,97135.87
2018-09-27T02:53:54.236Z,97130.88
2018-09-27T02:56:23.350Z,97136.87
2018-09-27T02:58:52.465Z,97131.39
2018-09-27T03:01:21.669Z,97137.06
2018-09-27T03:03:50.752Z,97143.22
2018-09-27T03:06:19.814Z,97144.70
2018-09-27T03:08:48.952Z,97140.16
2018-09-27T03:11:18.096Z,97145.60
2018-09-27T03:13:47.292Z,97141.86
2018-09-27T03:16:16.308Z,97141.92
2018-09-27T03:18:45.391Z,97133.47
2018-09-27T03:21:14.493Z,97131.39
2018-09-27T03:23:43.713Z,97125.48
2018-09-27T03:26:12.978Z,97123.65
2018-09-27T03:28:42.080Z,97124.73
2018-09-27T03:31:11.140Z,97119.57
2018-09-27T03:33:40.324Z,97120.87
2018-09-27T03:36:09.385Z,97122.55
2018-09-27T03:38:38.562Z,97109.62
2018-09-27T03:41:07.764Z,97110.34
2018-09-27T03:43:36.952Z,97114.16
2018-09-27T03:46:06.008Z,97114.20
2018-09-27T03:48:35.088Z,97109.62
2018-09-27T03:51:04.247Z,97106.59
2018-09-27T03:53:33.447Z,97110.23
2018-09-27T03:56:02.556Z,97112.78
2018-09-27T03:58:31.621Z,97119.41
2018-09-27T04:01:00.719Z,97117.12
2018-09-27T04:03:29.881Z,97109.87
2018-09-27T04:05:58.948Z,97108.27
2018-09-27T04:08:28.333Z,97104.47
2018-09-27T04:10:57.785Z,97107.13
2018-09-27T04:13:26.880Z,97106.48
2018-09-27T04:15:56.039Z,97105.97
2018-09-27T04:18:25.237Z,97103.19
2018-09-27T04:20:54.404Z,97095.84
2018-09-27T04:23:24.295Z,97100.11
2018-09-27T04:25:53.364Z,97107.57
2018-09-27T04:28:22.884Z,97097.17
2018-09-27T04:30:52.016Z,97091.61
2018-09-27T04:33:21.213Z,97100.11
2018-09-27T04:35:50.324Z,97095.56
2018-09-27T04:38:19.524Z,97096.48
2018-09-27T04:40:48.607Z,97094.59
2018-09-27T04:43:17.816Z,97083.64
2018-09-27T04:45:46.916Z,97088.72
2018-09-27T04:48:16.090Z,97091.58
2018-09-27T04:50:45.154Z,97090.08
2018-09-27T04:53:14.344Z,97088.41
2018-09-27T04:55:43.507Z,97086.64
2018-09-27T04:58:12.592Z,97085.89
2018-09-27T05:00:41.786Z,97080.38
2018-09-27T05:03:10.889Z,97089.41
2018-09-27T05:05:40.008Z,97096.48
2018-09-27T05:08:09.108Z,97096.15
2018-09-27T05:10:38.532Z,97100.53
2018-09-27T05:13:07.668Z,97099.48
2018-09-27T05:15:36.764Z,97099.63
2018-09-27T05:18:06.059Z,97098.51
2018-09-27T05:20:35.147Z,97097.83
2018-09-27T05:23:04.311Z,97101.62
2018-09-27T05:25:33.544Z,97096.47
2018-09-27T05:28:02.600Z,97094.48
2018-09-27T05:30:31.732Z,97091.45
2018-09-27T05:33:00.932Z,97092.34
2018-09-27T05:35:30.048Z,97089.57
2018-09-27T05:37:59.129Z,97090.59
2018-09-27T05:40:28.289Z,97090.95
2018-09-27T05:42:57.471Z,97086.21
2018-09-27T05:45:26.661Z,97089.47
2018-09-27T05:47:56.146Z,97085.80
2018-09-27T05:50:25.215Z,97086.58
2018-09-27T05:52:54.415Z,97087.59
2018-09-27T05:55:23.565Z,97084.13
2018-09-27T05:57:52.847Z,97086.01
2018-09-27T06:00:22.011Z,97081.45
2018-09-27T06:02:51.108Z,97090.13
2018-09-27T06:05:20.181Z,97093.06
2018-09-27T06:07:49.389Z,97091.41
2018-09-27T06:10:18.598Z,97092.53
2018-09-27T06:12:47.703Z,97095.94
2018-09-27T06:15:16.983Z,97098.87
2018-09-27T06:17:46.097Z,97102.28
2018-09-27T06:20:15.225Z,97103.27
2018-09-27T06:22:44.380Z,97091.14
2018-09-27T06:25:13.617Z,97097.91
2018-09-27T06:27:43.074Z,97106.88
2018-09-27T06:30:12.136Z,97102.10
2018-09-27T06:32:41.544Z,97091.56
2018-09-27T06:35:10.948Z,97085.75
2018-09-27T06:37:39.972Z,97080.07
2018-09-27T06:40:09.114Z,97079.60
2018-09-27T06:42:38.179Z,97079.66
2018-09-27T06:45:08.204Z,97075.17
2018-09-27T06:47:37.406Z,97072.80
2018-09-27T06:50:07.176Z,97070.45
2018-09-27T06:52:36.262Z,97064.84
2018-09-27T06:55:05.577Z,97068.11
2018-09-27T06:57:34.571Z,97063.39
2018-09-27T07:00:04.014Z,97068.63
2018-09-27T07:02:33.098Z,97068.52
2018-09-27T07:05:02.386Z,97069.57
2018-09-27T07:07:31.456Z,97074.92
2018-09-27T07:10:00.551Z,97075.11
2018-09-27T07:12:29.754Z,97076.88
2018-09-27T07:14:58.788Z,97074.80
2018-09-27T07:17:27.878Z,97079.49
2018-09-27T07:19:56.978Z,97079.11
2018-09-27T07:22:26.071Z,97072.00
2018-09-27T07:24:55.161Z,97075.10
2018-09-27T07:27:24.229Z,97078.73
2018-09-27T07:29:53.429Z,97078.89
2018-09-27T07:32:22.536Z,97090.22
2018-09-27T07:34:51.641Z,97087.84
2018-09-27T07:37:20.844Z,97086.66
2018-09-27T07:39:49.948Z,97091.53
2018-09-27T07:42:19.063Z,97085.05
2018-09-27T07:44:48.472Z,97079.33
2018-09-27T07:47:17.609Z,97084.57
2018-09-27T07:49:46.914Z,97084.63
2018-09-27T07:52:16.000Z,97086.77
2018-09-27T07:54:45.268Z,97090.14
2018-09-27T07:57:14.336Z,97086.03
2018-09-27T07:59:43.628Z,97088.56
2018-09-27T08:02:12.822Z,97083.95
2018-09-27T08:04:41.916Z,97084.21
2018-09-27T08:07:11.132Z,97082.91
2018-09-27T08:09:40.284Z,97088.45
2018-09-27T08:12:09.520Z,97088.45
2018-09-27T08:14:38.711Z,97089.06
2018-09-27T08:17:07.807Z,97092.11
2018-09-27T08:19:36.938Z,97086.64
2018-09-27T08:22:06.042Z,97091.89
2018-09-27T08:24:35.366Z,97083.94
2018-09-27T08:27:04.460Z,97088.08
2018-09-27T08:29:33.600Z,97091.34
2018-09-27T08:32:02.959Z,97084.77
2018-09-27T08:34:32.076Z,97088.09
2018-09-27T08:37:01.260Z,97094.14
2018-09-27T08:39:30.415Z,97092.77
2018-09-27T08:41:59.540Z,97092.47
2018-09-27T08:44:28.669Z,97090.31
2018-09-27T08:46:57.747Z,97087.54
2018-09-27T08:49:27.033Z,97082.08
2018-09-27T08:51:56.140Z,97076.84
2018-09-27T08:54:25.274Z,97072.64
2018-09-27T08:56:54.436Z,97078.11
2018-09-27T08:59:23.545Z,97077.57
2018-09-27T09:01:52.625Z,97078.33
2018-09-27T09:04:21.717Z,97069.08
2018-09-27T09:06:51.049Z,97066.26
2018-09-27T09:09:20.220Z,97069.23
2018-09-27T09:11:49.316Z,97065.34
2018-09-27T09:14:18.528Z,97062.91
2018-09-27T09:16:47.624Z,97052.17
2018-09-27T09:19:16.808Z,97053.19
2018-09-27T09:21:45.994Z,97054.29
2018-09-27T09:24:15.204Z,97045.36
2018-09-27T09:26:44.392Z,97042.44
2018-09-27T09:29:13.605Z,97034.72
2018-09-27T09:31:42.776Z,97029.99
2018-09-27T09:34:11.860Z,97035.96
2018-09-27T09:36:40.965Z,97026.44
2018-09-27T09:39:10.064Z,97017.78
2018-09-27T09:41:39.176Z,97016.12
2018-09-27T09:44:08.253Z,97018.16
2018-09-27T09:46:37.551Z,97014.63
2018-09-27T09:49:06.656Z,97020.83
2018-09-27T09:51:35.843Z,97015.84
2018-09-27T09:54:05.053Z,97003.23
2018-09-27T09:56:34.159Z,96998.02
2018-09-27T09:59:03.289Z,97001.74
2018-09-27T10:01:32.361Z,96995.12
2018-09-27T10:04:01.541Z,96990.19
2018-09-27T10:06:30.601Z,96990.05
2018-09-27T10:08:59.707Z,96983.39
2018-09-27T10:11:28.909Z,96980.68
2018-09-27T10:13:58.025Z,96986.23
2018-09-27T10:16:27.093Z,96979.57
2018-09-27T10:18:56.224Z,96974.31
2018-09-27T10:21:25.315Z,96965.63
2018-09-27T10:23:54.528Z,96972.88
2018-09-27T10:26:23.610Z,96967.89
2018-09-27T10:28:52.936Z,96968.58
2018-09-27T10:31:22.003Z,96957.05
2018-09-27T10:33:51.113Z,96959.81
2018-09-27T10:36:20.290Z,96956.43
2018-09-27T10:38:49.408Z,96947.50
2018-09-27T10:41:18.481Z,96943.31
2018-09-27T10:43:47.588Z,96934.69
2018-09-27T10:46:16.772Z,96940.87
2018-09-27T10:48:45.958Z,96938.98
2018-09-27T10:51:15.171Z,96928.39
2018-09-27T10:53:44.219Z,96932.02
2018-09-27T10:56:13.312Z,96936.72
2018-09-27T10:58:42.448Z,96937.81
2018-09-27T11:01:11.559Z,96935.41
2018-09-27T11:03:40.733Z,96931.02
2018-09-27T11:06:09.832Z,96924.84
2018-09-27T11:08:39.030Z,96922.89
2018-09-27T11:11:08.203Z,96924.03
2018-09-27T11:13:37.259Z,96919.63
2018-09-27T11:16:06.347Z,96917.17
2018-09-27T11:18:35.429Z,96916.98
2018-09-27T11:21:04.651Z,96916.21
2018-09-27T11:23:33.812Z,96916.22
2018-09-27T11:26:03.021Z,96911.39
2018-09-27T11:28:38.004Z,96907.92
2018-09-27T11:31:12.373Z,96898.77
2018-09-27T11:33:41.577Z,96896.54
2018-09-27T11:36:11.234Z,96890.86
2018-09-27T11:38:40.415Z,96880.26
2018-09-27T11:41:09.449Z,96877.22
2018-09-27T11:43:39.001Z,96874.44
2018-09-27T11:46:08.093Z,96874.81
2018-09-27T11:48:37.249Z,96877.47
2018-09-27T11:51:06.385Z,96868.83
2018-09-27T11:53:35.429Z,96866.43
2018-09-27T11:56:04.589Z,96863.95
2018-09-27T11:58:33.636Z,96863.58
2018-09-27T12:01:03.031Z,96850.82
2018-09-27T12:03:32.097Z,96852.23
2018-09-27T12:06:01.361Z,96850.20
2018-09-27T12:08:30.556Z,96845.59
2018-09-27T12:10:59.632Z,96833.44
2018-09-27T12:13:28.810Z,96839.30
2018-09-27T12:15:57.836Z,96836.09
2018-09-27T12:18:26.924Z,96840.41
2018-09-27T12:20:56.124Z,96834.94
2018-09-27T12:23:25.195Z,96823.89
2018-09-27T12:25:54.296Z,96827.70
2018-09-27T12:28:23.361Z,96827.14
2018-09-27T12:30:52.672Z,96821.51
2018-09-27T12:33:21.679Z,96816.33
2018-09-27T12:35:50.793Z,96809.02
2018-09-27T12:38:20.048Z,96816.63
2018-09-27T12:40:49.093Z,96805.98
2018-09-27T12:43:18.173Z,96801.41
2018-09-27T12:45:47.423Z,96800.87
2018-09-27T12:48:16.626Z,96791.09
2018-09-27T12:50:45.893Z,96793.38
2018-09-27T12:53:14.967Z,96788.12
2018-09-27T12:55:43.984Z,96787.23
2018-09-27T12:58:13.153Z,96783.52
2018-09-27T13:00:42.253Z,96778.84
2018-09-27T13:03:11.352Z,96769.92
2018-09-27T13:05:40.437Z,96773.09
2018-09-27T13:08:09.606Z,96760.08
2018-09-27T13:10:38.758Z,96759.45
2018-09-27T13:13:08.008Z,96759.07
2018-09-27T13:15:37.044Z,96752.38
2018-09-27T13:18:06.120Z,96753.27
2018-09-27T13:20:35.296Z,96750.73
2018-09-27T13:23:04.452Z,96745.45
2018-09-27T13:25:33.521Z,96744.56
2018-09-27T13:28:02.742Z,96735.27
2018-09-27T13:30:31.974Z,96725.52
2018-09-27T13:33:01.123Z,96726.94
2018-09-27T13:35:30.209Z,96717.88
2018-09-27T13:37:59.285Z,96715.87
2018-09-27T13:40:28.376Z,96711.12
2018-09-27T13:42:57.479Z,96705.02
2018-09-27T13:45:26.605Z,96700.97
2018-09-27T13:47:55.856Z,96698.55
2018-09-27T13:50:24.977Z,96698.63
2018-09-27T13:52:54.067Z,96689.53
2018-09-27T13:55:23.163Z,96693.77
2018-09-27T13:57:52.278Z,96687.09
2018-09-27T14:00:21.466Z,96678.00
2018-09-27T14:02:50.655Z,96685.97
2018-09-27T14:05:22.843Z,96678.55
2018-09-27T14:07:51.944Z,96679.61
2018-09-27T14:10:21.013Z,96679.10
2018-09-27T14:12:50.140Z,96675.13
2018-09-27T14:15:19.185Z,96668.00
2018-09-27T14:17:48.303Z,96666.18
2018-09-27T14:20:17.393Z,96664.47
2018-09-27T14:22:46.500Z,96651.80
2018-09-27T14:25:15.568Z,96653.38
2018-09-27T14:27:44.791Z,96648.06
2018-09-27T14:30:13.859Z,96647.15
2018-09-27T14:32:42.931Z,96640.69
2018-09-27T14:35:12.058Z,96643.25
2018-09-27T14:37:41.160Z,96632.75
2018-09-27T14:40:10.229Z,96631.59
2018-09-27T14:42:39.384Z,96626.16
2018-09-27T14:45:08.430Z,96626.78
2018-09-27T14:47:37.580Z,96618.92
2018-09-27T14:50:06.714Z,96623.11
2018-09-27T14:52:35.898Z,96617.32
2018-09-27T14:55:04.972Z,96617.77
2018-09-27T14:57:34.032Z,96605.08
2018-09-27T15:00:03.131Z,96610.20
2018-09-27T15:02:32.273Z,96605.57
2018-09-27T15:05:01.298Z,96604.14
2018-09-27T15:07:30.391Z,96598.89
2018-09-27T15:09:59.972Z,96599.66
2018-09-27T15:12:29.118Z,96594.27
2018-09-27T15:14:58.225Z,96593.47
2018-09-27T15:17:27.286Z,96589.02
2018-09-27T15:19:56.376Z,96583.58
2018-09-27T15:22:25.526Z,96586.19
2018-09-27T15:24:54.553Z,96579.91
2018-09-27T15:27:23.775Z,96572.88
2018-09-27T15:29:52.876Z,96570.64
2018-09-27T15:32:21.993Z,96577.56
2018-09-27T15:34:51.068Z,96573.31
2018-09-27T15:37:20.136Z,96566.55
2018-09-27T15:39:49.307Z,96566.22
2018-09-27T15:42:18.452Z,96562.30
2018-09-27T15:44:47.560Z,96562.30
2018-09-27T15:47:16.672Z,96559.22
2018-09-27T15:49:45.887Z,96555.75
2018-09-27T15:52:15.030Z,96545.72
2018-09-27T15:54:44.226Z,96548.89
2018-09-27T15:57:13.356Z,96550.05
2018-09-27T15:59:42.447Z,96543.05
2018-09-27T16:02:11.560Z,96546.48
2018-09-27T16:04:40.720Z,96535.11
2018-09-27T16:07:09.828Z,96526.75
2018-09-27T16:09:38.924Z,96534.65
2018-09-27T16:12:08.027Z,96526.53
2018-09-27T16:14:37.173Z,96524.70
2018-09-27T16:17:06.291Z,96520.08
2018-09-27T16:19:35.395Z,96514.30
2018-09-27T16:22:04.617Z,96513.42
2018-09-27T16:24:33.788Z,96511.93
2018-09-27T16:27:02.892Z,96511.20
2018-09-27T16:29:32.123Z,96507.30
2018-09-27T16:32:01.233Z,96504.16
2018-09-27T16:34:30.466Z,96501.45
2018-09-27T16:36:59.594Z,96494.37
2018-09-27T16:39:28.670Z,96493.27
2018-09-27T16:41:57.785Z,96497.27
2018-09-27T16:44:26.961Z,96486.42
2018-09-27T16:46:56.176Z,96494.49
2018-09-27T16:49:25.360Z,96487.44
2018-09-27T16:51:54.568Z,96485.54
2018-09-27T16:54:23.748Z,96482.81
2018-09-27T16:56:52.868Z,96475.02
2018-09-27T16:59:22.030Z,96470.60
2018-09-27T17:01:51.288Z,96464.34
2018-09-27T17:04:20.384Z,96461.92
2018-09-27T17:06:49.524Z,96457.53
2018-09-27T17:09:18.636Z,96458.84
2018-09-27T17:11:47.741Z,96461.73
2018-09-27T17:14:16.917Z,96459.56
2018-09-27T17:16:46.049Z,96454.40
2018-09-27T17:19:15.131Z,96452.16
2018-09-27T17:21:44.368Z,96452.89
2018-09-27T17:24:13.599Z,96452.59
2018-09-27T17:26:42.653Z,96445.01
2018-09-27T17:29:11.747Z,96447.19
2018-09-27T17:31:40.967Z,96442.84
2018-09-27T17:34:10.001Z,96445.16
2018-09-27T17:36:39.176Z,96439.25
2018-09-27T17:39:08.716Z,96441.69
2018-09-27T17:41:38.070Z,96440.29
2018-09-27T17:44:07.408Z,96442.06
2018-09-27T17:46:36.608Z,96431.17
2018-09-27T17:49:05.579Z,96434.81
2018-09-27T17:51:34.741Z,96435.94
2018-09-27T17:54:03.888Z,96435.04
2018-09-27T17:56:33.032Z,96431.74
2018-09-27T17:59:02.343Z,96431.60
2018-09-27T18:01:31.435Z,96437.52
2018-09-27T18:04:00.728Z,96435.05
2018-09-27T18:06:29.958Z,96434.68
2018-09-27T18:08:59.071Z,96430.58
2018-09-27T18:11:28.182Z,96431.92
2018-09-27T18:13:57.266Z,96431.86
2018-09-27T18:16:26.497Z,96433.36
2018-09-27T18:18:55.640Z,96431.22
2018-09-27T18:21:24.757Z,96434.16
2018-09-27T18:23:53.849Z,96431.48
2018-09-27T18:26:22.939Z,96433.30
2018-09-27T18:28:52.023Z,96436.58
2018-09-27T18:31:21.245Z,96440.97
2018-09-27T18:33:50.433Z,96432.57
2018-09-27T18:36:19.525Z,96427.90
2018-09-27T18:38:48.808Z,96433.13
2018-09-27T18:41:17.868Z,96432.49
2018-09-27T18:43:46.956Z,96429.23
2018-09-27T18:46:16.113Z,96428.50
2018-09-27T18:48:45.191Z,96430.78
2018-09-27T18:51:14.369Z,96431.14
2018-09-27T18:53:43.416Z,96425.55
2018-09-27T18:56:12.578Z,96419.69
2018-09-27T18:58:41.696Z,96428.56
2018-09-27T19:01:10.888Z,96416.45
2018-09-27T19:03:39.989Z,96416.33
2018-09-27T19:06:09.168Z,96417.71
2018-09-27T19:08:38.301Z,96421.77
2018-09-27T19:11:08.281Z,96421.92
2018-09-27T19:13:37.403Z,96416.52
2018-09-27T19:16:06.576Z,96412.62
2018-09-27T19:18:35.688Z,96417.23
2018-09-27T19:21:04.796Z,96419.48
2018-09-27T19:23:33.919Z,96415.27
2018-09-27T19:26:03.116Z,96416.52
2018-09-27T19:28:32.195Z,96413.09
2018-09-27T19:31:01.352Z,96408.96
2018-09-27T19:33:30.751Z,96411.13
2018-09-27T19:35:59.880Z,96413.15
2018-09-27T19:38:29.144Z,96409.48
2018-09-27T19:40:58.209Z,96412.83
2018-09-27T19:43:27.331Z,96404.63
2018-09-27T19:45:56.428Z,96403.08
2018-09-27T19:48:25.533Z,96407.00
2018-09-27T19:50:54.621Z,96396.25
2018-09-27T19:53:23.922Z,96403.48
2018-09-27T19:55:53.024Z,96401.22
2018-09-27T19:58:22.204Z,96402.19
2018-09-27T20:00:51.253Z,96395.56
2018-09-27T20:03:20.417Z,96400.67
2018-09-27T20:05:49.541Z,96400.12
2018-09-27T20:08:18.701Z,96396.00
2018-09-27T20:10:47.833Z,96402.02
2018-09-27T20:13:16.900Z,96398.02
2018-09-27T20:15:45.997Z,96391.39
2018-09-27T20:18:15.275Z,96389.12
2018-09-27T20:20:44.408Z,96394.88
2018-09-27T20:23:13.496Z,96392.48
2018-09-27T20:25:42.684Z,96389.61
2018-09-27T20:28:12.150Z,96392.80
2018-09-27T20:30:41.200Z,96387.53
2018-09-27T20:33:10.290Z,96378.95
2018-09-27T20:35:39.492Z,96387.22
2018-09-27T20:38:08.676Z,96388.11
2018-09-27T20:40:37.847Z,96387.39
2018-09-27T20:43:06.951Z,96384.88
2018-09-27T20:45:36.067Z,96384.81
2018-09-27T20:48:05.196Z,96379.91
2018-09-27T20:50:34.308Z,96378.13
2018-09-27T20:53:03.471Z,96372.49
2018-09-27T20:55:32.666Z,96367.04
2018-09-27T20:58:01.770Z,96366.48
2018-09-27T21:00:31.127Z,96367.28
2018-09-27T21:03:00.263Z,96368.98
2018-09-27T21:05:29.444Z,96362.92
2018-09-27T21:07:58.549Z,96360.03
2018-09-27T21:10:27.710Z,96361.41
2018-09-27T21:12:56.841Z,96357.53
2018-09-27T21:15:25.933Z,96357.13
2018-09-27T21:17:55.045Z,96350.49
2018-09-27T21:20:24.137Z,96351.89
2018-09-27T21:22:53.234Z,96353.58
2018-09-27T21:25:22.397Z,96356.63
2018-09-27T21:27:51.497Z,96354.38
2018-09-27T21:30:20.589Z,96359.63
2018-09-27T21:32:49.788Z,96352.56
2018-09-27T21:35:18.889Z,96360.23
2018-09-27T21:37:48.120Z,96356.92
2018-09-27T21:40:17.204Z,96349.00
2018-09-27T21:42:46.392Z,96351.16
2018-09-27T21:45:15.584Z,96344.50
2018-09-27T21:47:44.688Z,96346.38
2018-09-27T21:50:13.938Z,96348.32
2018-09-27T21:52:42.991Z,96351.55
2018-09-27T21:55:12.148Z,96352.15
2018-09-27T21:57:41.286Z,96349.47
2018-09-27T22:00:10.445Z,96345.06
2018-09-27T22:02:39.534Z,96347.86
2018-09-27T22:05:08.659Z,96351.13
2018-09-27T22:07:37.766Z,96349.30
2018-09-27T22:10:06.879Z,96350.97
2018-09-27T22:12:35.983Z,96355.33
2018-09-27T22:15:05.560Z,96346.62
2018-09-27T22:17:34.663Z,96346.39
2018-09-27T22:20:03.882Z,96345.88
2018-09-27T22:22:33.088Z,96346.96
2018-09-27T22:25:04.173Z,96347.19
2018-09-27T22:27:33.264Z,96337.61
2018-09-27T22:30:02.492Z,96332.44
2018-09-27T22:32:31.599Z,96334.16
2018-09-27T22:35:00.718Z,96330.25
2018-09-27T22:37:29.843Z,96329.19
2018-09-27T22:39:59.591Z,96333.59
2018-09-27T22:42:28.767Z,96329.25
2018-09-27T22:44:57.906Z,96328.71
2018-09-27T22:47:27.041Z,96334.70
2018-09-27T22:49:56.181Z,96326.77
2018-09-27T22:52:25.469Z,96321.34
2018-09-27T22:54:54.631Z,96321.63
2018-09-27T22:57:23.708Z,96323.55
2018-09-27T22:59:52.821Z,96320.54
2018-09-27T23:02:22.029Z,96322.75
2018-09-27T23:04:51.217Z,96324.38
2018-09-27T23:07:20.349Z,96323.55
2018-09-27T23:09:49.505Z,96322.19
2018-09-27T23:12:18.599Z,96320.28
2018-09-27T23:14:47.712Z,96319.17
2018-09-27T23:17:16.999Z,96315.91
2018-09-27T23:19:46.296Z,96315.09
2018-09-27T23:22:15.424Z,96316.19
2018-09-27T23:24:44.516Z,96306.91
2018-09-27T23:27:13.697Z,96309.10
2018-09-27T23:29:42.812Z,96306.65
2018-09-27T23:32:12.024Z,96305.28
2018-09-27T23:34:41.196Z,96300.08
2018-09-27T23:37:10.304Z,96301.98
2018-09-27T23:39:39.476Z,96302.55
2018-09-27T23:42:08.601Z,96304.75
2018-09-27T23:44:37.792Z,96298.44
2018-09-27T23:47:07.091Z,96306.38
2018-09-27T23:49:36.182Z,96301.18
2018-09-27T23:52:05.312Z,96300.12
2018-09-27T23:54:34.467Z,96299.28
2018-09-27T23:57:03.571Z,96296.57
2018-09-27T23:59:32.784Z,96298.50
